sensor_id;sensor_type;location;lat;lon;timestamp;P1;durP1;ratioP1;P2;durP2;ratioP2
1575;SDS011;49795;50.088;9.068;2023-08-21T00:01:56;2.63;;;2.17;;
1575;SDS011;49795;50.088;9.068;2023-08-21T00:04:24;3.63;;;2.23;;
1575;SDS011;49795;50.088;9.068;2023-08-21T00:06:51;2.53;;;2.00;;
1575;SDS011;49795;50.088;9.068;2023-08-21T00:09:18;2.13;;;1.93;;
1575;SDS011;49795;50.088;9.068;2023-08-21T00:11:45;3.07;;;2.77;;
1575;SDS011;49795;50.088;9.068;2023-08-21T00:14:13;2.63;;;1.67;;
1575;SDS011;49795;50.088;9.068;2023-08-21T00:16:40;2.23;;;2.03;;
1575;SDS011;49795;50.088;9.068;2023-08-21T00:19:07;3.57;;;2.40;;
1575;SDS011;49795;50.088;9.068;2023-08-21T00:21:34;2.53;;;1.23;;
1575;SDS011;49795;50.088;9.068;2023-08-21T00:24:02;3.13;;;2.00;;
1575;SDS011;49795;50.088;9.068;2023-08-21T00:26:29;2.90;;;2.70;;
1575;SDS011;49795;50.088;9.068;2023-08-21T00:28:56;3.60;;;2.33;;
1575;SDS011;49795;50.088;9.068;2023-08-21T00:31:23;2.83;;;1.73;;
1575;SDS011;49795;50.088;9.068;2023-08-21T00:33:51;2.10;;;2.00;;
1575;SDS011;49795;50.088;9.068;2023-08-21T00:36:18;1.40;;;1.30;;
1575;SDS011;49795;50.088;9.068;2023-08-21T00:38:46;3.27;;;1.60;;
1575;SDS011;49795;50.088;9.068;2023-08-21T00:41:14;4.77;;;3.70;;
1575;SDS011;49795;50.088;9.068;2023-08-21T00:43:42;3.00;;;2.43;;
1575;SDS011;49795;50.088;9.068;2023-08-21T00:46:09;1.90;;;1.70;;
1575;SDS011;49795;50.088;9.068;2023-08-21T00:48:37;2.13;;;1.57;;
1575;SDS011;49795;50.088;9.068;2023-08-21T00:51:04;3.53;;;3.23;;
1575;SDS011;49795;50.088;9.068;2023-08-21T00:53:33;2.93;;;2.10;;
1575;SDS011;49795;50.088;9.068;2023-08-21T00:56:00;2.47;;;1.70;;
1575;SDS011;49795;50.088;9.068;2023-08-21T00:58:28;6.43;;;1.70;;
1575;SDS011;49795;50.088;9.068;2023-08-21T01:00:56;3.57;;;2.10;;
1575;SDS011;49795;50.088;9.068;2023-08-21T01:03:24;2.63;;;2.17;;
1575;SDS011;49795;50.088;9.068;2023-08-21T01:05:51;2.60;;;1.27;;
1575;SDS011;49795;50.088;9.068;2023-08-21T01:08:26;2.40;;;1.40;;
1575;SDS011;49795;50.088;9.068;2023-08-21T01:16:11;1.90;;;1.73;;
1575;SDS011;49795;50.088;9.068;2023-08-21T01:18:42;2.20;;;1.93;;
1575;SDS011;49795;50.088;9.068;2023-08-21T01:21:10;5.90;;;2.03;;
1575;SDS011;49795;50.088;9.068;2023-08-21T01:23:37;1.70;;;1.30;;
1575;SDS011;49795;50.088;9.068;2023-08-21T01:26:05;3.00;;;2.00;;
1575;SDS011;49795;50.088;9.068;2023-08-21T01:28:32;7.23;;;1.97;;
1575;SDS011;49795;50.088;9.068;2023-08-21T01:31:03;2.97;;;2.77;;
1575;SDS011;49795;50.088;9.068;2023-08-21T01:33:33;6.87;;;3.70;;
1575;SDS011;49795;50.088;9.068;2023-08-21T01:36:02;3.20;;;2.07;;
1575;SDS011;49795;50.088;9.068;2023-08-21T01:38:32;2.17;;;2.00;;
1575;SDS011;49795;50.088;9.068;2023-08-21T01:40:59;3.13;;;1.70;;
1575;SDS011;49795;50.088;9.068;2023-08-21T01:43:27;4.60;;;1.57;;
1575;SDS011;49795;50.088;9.068;2023-08-21T01:45:54;1.87;;;1.77;;
1575;SDS011;49795;50.088;9.068;2023-08-21T01:48:21;4.60;;;1.93;;
1575;SDS011;49795;50.088;9.068;2023-08-21T01:50:49;3.63;;;2.00;;
1575;SDS011;49795;50.088;9.068;2023-08-21T01:53:17;2.77;;;2.57;;
1575;SDS011;49795;50.088;9.068;2023-08-21T01:55:45;3.13;;;2.93;;
1575;SDS011;49795;50.088;9.068;2023-08-21T01:58:12;2.87;;;1.97;;
1575;SDS011;49795;50.088;9.068;2023-08-21T02:00:39;2.47;;;1.83;;
1575;SDS011;49795;50.088;9.068;2023-08-21T02:03:07;5.03;;;2.07;;
1575;SDS011;49795;50.088;9.068;2023-08-21T02:05:38;2.30;;;1.93;;
1575;SDS011;49795;50.088;9.068;2023-08-21T02:08:06;3.80;;;1.77;;
1575;SDS011;49795;50.088;9.068;2023-08-21T02:10:34;3.90;;;2.50;;
1575;SDS011;49795;50.088;9.068;2023-08-21T02:13:01;2.23;;;2.03;;
1575;SDS011;49795;50.088;9.068;2023-08-21T02:15:29;2.30;;;2.10;;
1575;SDS011;49795;50.088;9.068;2023-08-21T02:17:56;4.57;;;2.23;;
1575;SDS011;49795;50.088;9.068;2023-08-21T02:20:23;2.63;;;1.87;;
1575;SDS011;49795;50.088;9.068;2023-08-21T02:22:51;3.40;;;2.10;;
1575;SDS011;49795;50.088;9.068;2023-08-21T02:25:18;2.03;;;1.87;;
1575;SDS011;49795;50.088;9.068;2023-08-21T02:28:06;2.67;;;1.93;;
1575;SDS011;49795;50.088;9.068;2023-08-21T02:30:33;3.57;;;2.50;;
1575;SDS011;49795;50.088;9.068;2023-08-21T02:33:01;3.30;;;2.60;;
1575;SDS011;49795;50.088;9.068;2023-08-21T02:35:28;2.50;;;1.47;;
1575;SDS011;49795;50.088;9.068;2023-08-21T02:37:56;2.37;;;1.67;;
1575;SDS011;49795;50.088;9.068;2023-08-21T02:40:23;6.63;;;2.17;;
1575;SDS011;49795;50.088;9.068;2023-08-21T02:42:50;2.47;;;2.03;;
1575;SDS011;49795;50.088;9.068;2023-08-21T02:45:17;2.90;;;2.60;;
1575;SDS011;49795;50.088;9.068;2023-08-21T02:47:45;2.70;;;2.30;;
1575;SDS011;49795;50.088;9.068;2023-08-21T02:50:12;5.07;;;4.23;;
1575;SDS011;49795;50.088;9.068;2023-08-21T02:52:39;1.70;;;1.60;;
1575;SDS011;49795;50.088;9.068;2023-08-21T02:55:07;4.80;;;2.70;;
1575;SDS011;49795;50.088;9.068;2023-08-21T02:57:35;2.30;;;2.10;;
1575;SDS011;49795;50.088;9.068;2023-08-21T03:00:03;3.00;;;2.70;;
1575;SDS011;49795;50.088;9.068;2023-08-21T03:02:30;15.23;;;2.30;;
1575;SDS011;49795;50.088;9.068;2023-08-21T03:04:59;3.20;;;1.87;;
1575;SDS011;49795;50.088;9.068;2023-08-21T03:07:26;4.90;;;2.57;;
1575;SDS011;49795;50.088;9.068;2023-08-21T03:09:53;4.87;;;1.83;;
1575;SDS011;49795;50.088;9.068;2023-08-21T03:12:21;1.73;;;1.47;;
1575;SDS011;49795;50.088;9.068;2023-08-21T03:14:48;2.53;;;2.20;;
1575;SDS011;49795;50.088;9.068;2023-08-21T03:17:15;1.93;;;1.83;;
1575;SDS011;49795;50.088;9.068;2023-08-21T03:19:42;2.10;;;1.90;;
1575;SDS011;49795;50.088;9.068;2023-08-21T03:22:10;5.47;;;1.97;;
1575;SDS011;49795;50.088;9.068;2023-08-21T03:24:38;3.30;;;2.57;;
1575;SDS011;49795;50.088;9.068;2023-08-21T03:27:05;1.70;;;1.60;;
1575;SDS011;49795;50.088;9.068;2023-08-21T03:29:32;1.80;;;1.53;;
1575;SDS011;49795;50.088;9.068;2023-08-21T03:31:59;1.87;;;1.77;;
1575;SDS011;49795;50.088;9.068;2023-08-21T03:34:27;4.17;;;2.30;;
1575;SDS011;49795;50.088;9.068;2023-08-21T03:36:54;4.23;;;1.70;;
1575;SDS011;49795;50.088;9.068;2023-08-21T03:39:22;2.90;;;2.70;;
1575;SDS011;49795;50.088;9.068;2023-08-21T03:41:49;2.40;;;1.80;;
1575;SDS011;49795;50.088;9.068;2023-08-21T03:44:17;2.23;;;2.03;;
1575;SDS011;49795;50.088;9.068;2023-08-21T03:46:44;4.20;;;1.30;;
1575;SDS011;49795;50.088;9.068;2023-08-21T03:49:11;4.90;;;2.70;;
1575;SDS011;49795;50.088;9.068;2023-08-21T03:51:39;2.90;;;2.60;;
1575;SDS011;49795;50.088;9.068;2023-08-21T03:54:06;2.60;;;2.17;;
1575;SDS011;49795;50.088;9.068;2023-08-21T03:56:33;2.17;;;1.50;;
1575;SDS011;49795;50.088;9.068;2023-08-21T03:59:00;3.63;;;3.10;;
1575;SDS011;49795;50.088;9.068;2023-08-21T04:01:28;2.50;;;2.30;;
1575;SDS011;49795;50.088;9.068;2023-08-21T04:03:56;3.43;;;2.50;;
1575;SDS011;49795;50.088;9.068;2023-08-21T04:06:23;2.23;;;2.10;;
1575;SDS011;49795;50.088;9.068;2023-08-21T04:08:50;3.17;;;1.93;;
1575;SDS011;49795;50.088;9.068;2023-08-21T04:11:18;5.27;;;3.40;;
1575;SDS011;49795;50.088;9.068;2023-08-21T04:13:45;4.20;;;2.97;;
1575;SDS011;49795;50.088;9.068;2023-08-21T04:16:12;3.97;;;2.40;;
1575;SDS011;49795;50.088;9.068;2023-08-21T04:18:41;2.37;;;2.07;;
1575;SDS011;49795;50.088;9.068;2023-08-21T04:21:08;5.73;;;1.90;;
1575;SDS011;49795;50.088;9.068;2023-08-21T04:23:36;3.97;;;2.67;;
1575;SDS011;49795;50.088;9.068;2023-08-21T04:26:04;6.80;;;2.60;;
1575;SDS011;49795;50.088;9.068;2023-08-21T04:28:31;1.57;;;1.47;;
1575;SDS011;49795;50.088;9.068;2023-08-21T04:30:59;3.13;;;2.93;;
1575;SDS011;49795;50.088;9.068;2023-08-21T04:33:30;2.80;;;1.73;;
1575;SDS011;49795;50.088;9.068;2023-08-21T04:35:57;1.80;;;1.40;;
1575;SDS011;49795;50.088;9.068;2023-08-21T04:38:25;2.50;;;2.30;;
1575;SDS011;49795;50.088;9.068;2023-08-21T04:40:52;2.37;;;1.70;;
1575;SDS011;49795;50.088;9.068;2023-08-21T04:43:20;3.57;;;2.60;;
1575;SDS011;49795;50.088;9.068;2023-08-21T04:45:51;4.23;;;3.20;;
1575;SDS011;49795;50.088;9.068;2023-08-21T04:48:22;2.60;;;2.40;;
1575;SDS011;49795;50.088;9.068;2023-08-21T04:50:49;2.57;;;2.37;;
1575;SDS011;49795;50.088;9.068;2023-08-21T04:53:16;2.57;;;2.00;;
1575;SDS011;49795;50.088;9.068;2023-08-21T04:55:43;2.27;;;2.00;;
1575;SDS011;49795;50.088;9.068;2023-08-21T04:58:11;2.53;;;1.80;;
1575;SDS011;49795;50.088;9.068;2023-08-21T05:00:38;4.53;;;2.40;;
1575;SDS011;49795;50.088;9.068;2023-08-21T05:03:06;2.60;;;2.13;;
1575;SDS011;49795;50.088;9.068;2023-08-21T05:05:35;2.83;;;1.90;;
1575;SDS011;49795;50.088;9.068;2023-08-21T05:08:03;4.90;;;1.90;;
1575;SDS011;49795;50.088;9.068;2023-08-21T05:10:30;2.93;;;1.87;;
1575;SDS011;49795;50.088;9.068;2023-08-21T05:12:58;3.23;;;2.93;;
1575;SDS011;49795;50.088;9.068;2023-08-21T05:15:25;3.80;;;2.30;;
1575;SDS011;49795;50.088;9.068;2023-08-21T05:17:52;3.97;;;2.53;;
1575;SDS011;49795;50.088;9.068;2023-08-21T05:20:20;2.00;;;1.33;;
1575;SDS011;49795;50.088;9.068;2023-08-21T05:22:47;3.17;;;0.93;;
1575;SDS011;49795;50.088;9.068;2023-08-21T05:25:15;3.23;;;2.40;;
1575;SDS011;49795;50.088;9.068;2023-08-21T05:27:42;3.10;;;2.50;;
1575;SDS011;49795;50.088;9.068;2023-08-21T05:30:09;6.70;;;2.83;;
1575;SDS011;49795;50.088;9.068;2023-08-21T05:32:39;4.00;;;3.10;;
1575;SDS011;49795;50.088;9.068;2023-08-21T05:35:07;2.60;;;2.30;;
1575;SDS011;49795;50.088;9.068;2023-08-21T05:37:34;3.60;;;3.23;;
1575;SDS011;49795;50.088;9.068;2023-08-21T05:40:02;4.30;;;3.10;;
1575;SDS011;49795;50.088;9.068;2023-08-21T05:42:29;2.17;;;1.87;;
1575;SDS011;49795;50.088;9.068;2023-08-21T05:44:57;5.60;;;2.27;;
1575;SDS011;49795;50.088;9.068;2023-08-21T05:47:24;2.37;;;2.17;;
1575;SDS011;49795;50.088;9.068;2023-08-21T05:49:53;1.70;;;1.57;;
1575;SDS011;49795;50.088;9.068;2023-08-21T05:52:21;7.93;;;2.70;;
1575;SDS011;49795;50.088;9.068;2023-08-21T05:54:48;3.37;;;2.30;;
1575;SDS011;49795;50.088;9.068;2023-08-21T05:57:16;4.00;;;3.03;;
1575;SDS011;49795;50.088;9.068;2023-08-21T05:59:44;1.73;;;1.53;;
1575;SDS011;49795;50.088;9.068;2023-08-21T06:02:13;5.03;;;2.80;;
1575;SDS011;49795;50.088;9.068;2023-08-21T06:04:40;3.13;;;2.87;;
1575;SDS011;49795;50.088;9.068;2023-08-21T06:07:07;6.90;;;3.10;;
1575;SDS011;49795;50.088;9.068;2023-08-21T06:09:36;2.20;;;1.37;;
1575;SDS011;49795;50.088;9.068;2023-08-21T06:12:07;3.17;;;2.67;;
1575;SDS011;49795;50.088;9.068;2023-08-21T06:14:35;3.50;;;1.93;;
1575;SDS011;49795;50.088;9.068;2023-08-21T06:17:03;2.93;;;2.63;;
1575;SDS011;49795;50.088;9.068;2023-08-21T06:19:32;8.70;;;3.43;;
1575;SDS011;49795;50.088;9.068;2023-08-21T06:21:59;3.53;;;2.27;;
1575;SDS011;49795;50.088;9.068;2023-08-21T06:24:26;7.60;;;4.63;;
1575;SDS011;49795;50.088;9.068;2023-08-21T06:26:54;3.03;;;1.77;;
1575;SDS011;49795;50.088;9.068;2023-08-21T06:29:21;2.67;;;2.47;;
1575;SDS011;49795;50.088;9.068;2023-08-21T06:31:49;3.53;;;2.63;;
1575;SDS011;49795;50.088;9.068;2023-08-21T06:34:16;3.97;;;1.97;;
1575;SDS011;49795;50.088;9.068;2023-08-21T06:36:43;4.67;;;2.60;;
1575;SDS011;49795;50.088;9.068;2023-08-21T06:39:11;2.50;;;2.00;;
1575;SDS011;49795;50.088;9.068;2023-08-21T06:41:38;4.40;;;2.70;;
1575;SDS011;49795;50.088;9.068;2023-08-21T06:44:05;2.87;;;2.67;;
1575;SDS011;49795;50.088;9.068;2023-08-21T06:46:32;3.90;;;3.60;;
1575;SDS011;49795;50.088;9.068;2023-08-21T06:49:00;2.80;;;2.27;;
1575;SDS011;49795;50.088;9.068;2023-08-21T06:51:28;5.40;;;2.27;;
1575;SDS011;49795;50.088;9.068;2023-08-21T06:53:55;2.43;;;2.23;;
1575;SDS011;49795;50.088;9.068;2023-08-21T06:56:23;3.63;;;2.10;;
1575;SDS011;49795;50.088;9.068;2023-08-21T06:58:50;6.70;;;4.30;;
1575;SDS011;49795;50.088;9.068;2023-08-21T07:01:18;4.10;;;2.77;;
1575;SDS011;49795;50.088;9.068;2023-08-21T07:03:46;4.27;;;3.87;;
1575;SDS011;49795;50.088;9.068;2023-08-21T07:06:13;9.03;;;2.60;;
1575;SDS011;49795;50.088;9.068;2023-08-21T07:08:40;3.03;;;2.73;;
1575;SDS011;49795;50.088;9.068;2023-08-21T07:11:08;3.27;;;2.97;;
1575;SDS011;49795;50.088;9.068;2023-08-21T07:13:36;3.20;;;1.97;;
1575;SDS011;49795;50.088;9.068;2023-08-21T07:16:06;3.10;;;2.30;;
1575;SDS011;49795;50.088;9.068;2023-08-21T07:18:35;3.20;;;2.70;;
1575;SDS011;49795;50.088;9.068;2023-08-21T07:21:02;3.70;;;2.83;;
1575;SDS011;49795;50.088;9.068;2023-08-21T07:23:43;3.10;;;2.77;;
1575;SDS011;49795;50.088;9.068;2023-08-21T07:26:11;4.17;;;3.40;;
1575;SDS011;49795;50.088;9.068;2023-08-21T07:28:38;6.00;;;4.40;;
1575;SDS011;49795;50.088;9.068;2023-08-21T07:31:05;5.30;;;2.60;;
1575;SDS011;49795;50.088;9.068;2023-08-21T07:33:32;3.77;;;2.77;;
1575;SDS011;49795;50.088;9.068;2023-08-21T07:36:01;4.37;;;3.97;;
1575;SDS011;49795;50.088;9.068;2023-08-21T07:38:29;4.17;;;3.13;;
1575;SDS011;49795;50.088;9.068;2023-08-21T07:41:03;5.70;;;3.00;;
1575;SDS011;49795;50.088;9.068;2023-08-21T07:43:31;5.53;;;3.73;;
1575;SDS011;49795;50.088;9.068;2023-08-21T07:46:01;5.10;;;3.13;;
1575;SDS011;49795;50.088;9.068;2023-08-21T07:48:29;3.50;;;3.13;;
1575;SDS011;49795;50.088;9.068;2023-08-21T07:50:57;6.83;;;3.60;;
1575;SDS011;49795;50.088;9.068;2023-08-21T07:53:25;7.13;;;2.90;;
1575;SDS011;49795;50.088;9.068;2023-08-21T07:55:52;5.97;;;3.67;;
1575;SDS011;49795;50.088;9.068;2023-08-21T07:58:20;3.00;;;1.93;;
1575;SDS011;49795;50.088;9.068;2023-08-21T08:00:47;4.20;;;3.80;;
1575;SDS011;49795;50.088;9.068;2023-08-21T08:03:14;4.80;;;3.10;;
1575;SDS011;49795;50.088;9.068;2023-08-21T08:06:02;3.90;;;3.53;;
1575;SDS011;49795;50.088;9.068;2023-08-21T08:08:33;3.63;;;2.90;;
1575;SDS011;49795;50.088;9.068;2023-08-21T08:11:02;6.20;;;4.17;;
1575;SDS011;49795;50.088;9.068;2023-08-21T08:13:31;4.33;;;3.50;;
1575;SDS011;49795;50.088;9.068;2023-08-21T08:15:58;7.23;;;4.13;;
1575;SDS011;49795;50.088;9.068;2023-08-21T08:18:27;3.63;;;3.17;;
1575;SDS011;49795;50.088;9.068;2023-08-21T08:20:55;2.90;;;2.60;;
1575;SDS011;49795;50.088;9.068;2023-08-21T08:23:22;3.20;;;2.90;;
1575;SDS011;49795;50.088;9.068;2023-08-21T08:25:50;6.60;;;4.40;;
1575;SDS011;49795;50.088;9.068;2023-08-21T08:28:17;3.20;;;2.90;;
1575;SDS011;49795;50.088;9.068;2023-08-21T08:30:45;8.30;;;3.97;;
1575;SDS011;49795;50.088;9.068;2023-08-21T08:33:12;4.93;;;3.40;;
1575;SDS011;49795;50.088;9.068;2023-08-21T08:35:40;3.83;;;2.77;;
1575;SDS011;49795;50.088;9.068;2023-08-21T08:38:07;3.57;;;3.27;;
1575;SDS011;49795;50.088;9.068;2023-08-21T08:40:37;5.33;;;3.00;;
1575;SDS011;49795;50.088;9.068;2023-08-21T08:43:05;4.50;;;3.40;;
1575;SDS011;49795;50.088;9.068;2023-08-21T08:45:33;6.00;;;3.70;;
1575;SDS011;49795;50.088;9.068;2023-08-21T08:48:01;7.10;;;3.70;;
1575;SDS011;49795;50.088;9.068;2023-08-21T08:50:32;4.73;;;4.30;;
1575;SDS011;49795;50.088;9.068;2023-08-21T08:52:59;5.40;;;4.40;;
1575;SDS011;49795;50.088;9.068;2023-08-21T08:55:41;7.73;;;4.63;;
1575;SDS011;49795;50.088;9.068;2023-08-21T08:58:09;5.13;;;2.70;;
1575;SDS011;49795;50.088;9.068;2023-08-21T09:00:36;6.47;;;4.30;;
1575;SDS011;49795;50.088;9.068;2023-08-21T09:03:04;7.00;;;4.27;;
1575;SDS011;49795;50.088;9.068;2023-08-21T09:05:33;4.43;;;4.00;;
1575;SDS011;49795;50.088;9.068;2023-08-21T09:08:02;3.40;;;3.10;;
1575;SDS011;49795;50.088;9.068;2023-08-21T09:10:30;4.03;;;3.60;;
1575;SDS011;49795;50.088;9.068;2023-08-21T09:12:58;5.47;;;4.57;;
1575;SDS011;49795;50.088;9.068;2023-08-21T09:15:28;4.13;;;3.83;;
1575;SDS011;49795;50.088;9.068;2023-08-21T09:18:08;5.00;;;4.23;;
1575;SDS011;49795;50.088;9.068;2023-08-21T09:20:36;12.13;;;4.87;;
1575;SDS011;49795;50.088;9.068;2023-08-21T09:23:03;5.00;;;3.50;;
1575;SDS011;49795;50.088;9.068;2023-08-21T09:25:34;7.70;;;4.30;;
1575;SDS011;49795;50.088;9.068;2023-08-21T09:28:06;6.13;;;4.20;;
1575;SDS011;49795;50.088;9.068;2023-08-21T09:30:49;4.73;;;4.30;;
1575;SDS011;49795;50.088;9.068;2023-08-21T09:33:18;4.40;;;3.70;;
1575;SDS011;49795;50.088;9.068;2023-08-21T09:35:45;5.77;;;3.83;;
1575;SDS011;49795;50.088;9.068;2023-08-21T09:38:12;7.20;;;3.93;;
1575;SDS011;49795;50.088;9.068;2023-08-21T09:40:43;4.97;;;4.47;;
1575;SDS011;49795;50.088;9.068;2023-08-21T09:43:11;4.63;;;4.17;;
1575;SDS011;49795;50.088;9.068;2023-08-21T09:45:38;4.60;;;3.80;;
1575;SDS011;49795;50.088;9.068;2023-08-21T09:48:06;5.37;;;4.20;;
1575;SDS011;49795;50.088;9.068;2023-08-21T09:50:34;6.10;;;3.53;;
1575;SDS011;49795;50.088;9.068;2023-08-21T09:53:02;4.30;;;3.90;;
1575;SDS011;49795;50.088;9.068;2023-08-21T09:55:31;4.37;;;3.47;;
1575;SDS011;49795;50.088;9.068;2023-08-21T09:57:59;5.53;;;4.47;;
1575;SDS011;49795;50.088;9.068;2023-08-21T10:00:28;6.87;;;4.07;;
1575;SDS011;49795;50.088;9.068;2023-08-21T10:02:57;7.03;;;4.47;;
1575;SDS011;49795;50.088;9.068;2023-08-21T10:05:26;5.07;;;3.70;;
1575;SDS011;49795;50.088;9.068;2023-08-21T10:07:53;5.73;;;4.10;;
1575;SDS011;49795;50.088;9.068;2023-08-21T10:10:22;3.40;;;3.07;;
1575;SDS011;49795;50.088;9.068;2023-08-21T10:12:49;4.10;;;3.70;;
1575;SDS011;49795;50.088;9.068;2023-08-21T10:15:17;6.10;;;3.97;;
1575;SDS011;49795;50.088;9.068;2023-08-21T10:17:44;4.27;;;3.87;;
1575;SDS011;49795;50.088;9.068;2023-08-21T10:20:12;3.40;;;2.90;;
1575;SDS011;49795;50.088;9.068;2023-08-21T10:22:42;5.10;;;3.73;;
1575;SDS011;49795;50.088;9.068;2023-08-21T10:25:20;5.73;;;3.40;;
1575;SDS011;49795;50.088;9.068;2023-08-21T10:27:57;4.03;;;2.63;;
1575;SDS011;49795;50.088;9.068;2023-08-21T10:30:26;3.10;;;2.80;;
1575;SDS011;49795;50.088;9.068;2023-08-21T10:32:55;3.50;;;2.80;;
1575;SDS011;49795;50.088;9.068;2023-08-21T10:35:42;7.30;;;2.93;;
1575;SDS011;49795;50.088;9.068;2023-08-21T10:40:38;3.43;;;2.43;;
1575;SDS011;49795;50.088;9.068;2023-08-21T10:43:36;5.77;;;2.90;;
1575;SDS011;49795;50.088;9.068;2023-08-21T10:45:53;4.47;;;2.47;;
1575;SDS011;49795;50.088;9.068;2023-08-21T10:48:22;2.80;;;2.60;;
1575;SDS011;49795;50.088;9.068;2023-08-21T10:50:49;2.17;;;1.77;;
1575;SDS011;49795;50.088;9.068;2023-08-21T10:53:17;2.27;;;2.07;;
1575;SDS011;49795;50.088;9.068;2023-08-21T10:55:52;3.13;;;2.77;;
1575;SDS011;49795;50.088;9.068;2023-08-21T10:58:20;2.37;;;2.17;;
1575;SDS011;49795;50.088;9.068;2023-08-21T11:00:55;3.20;;;2.60;;
1575;SDS011;49795;50.088;9.068;2023-08-21T11:03:23;2.80;;;2.57;;
1575;SDS011;49795;50.088;9.068;2023-08-21T11:06:01;4.60;;;2.70;;
1575;SDS011;49795;50.088;9.068;2023-08-21T11:08:29;2.83;;;2.53;;
1575;SDS011;49795;50.088;9.068;2023-08-21T11:10:56;3.33;;;2.17;;
1575;SDS011;49795;50.088;9.068;2023-08-21T11:13:24;3.70;;;2.00;;
1575;SDS011;49795;50.088;9.068;2023-08-21T11:16:25;5.07;;;2.20;;
1575;SDS011;49795;50.088;9.068;2023-08-21T11:18:44;4.67;;;2.27;;
1575;SDS011;49795;50.088;9.068;2023-08-21T11:21:12;2.00;;;1.90;;
1575;SDS011;49795;50.088;9.068;2023-08-21T11:23:40;3.73;;;2.23;;
1575;SDS011;49795;50.088;9.068;2023-08-21T11:26:10;3.63;;;2.60;;
1575;SDS011;49795;50.088;9.068;2023-08-21T11:28:46;2.63;;;1.53;;
1575;SDS011;49795;50.088;9.068;2023-08-21T11:31:16;4.57;;;2.40;;
1575;SDS011;49795;50.088;9.068;2023-08-21T11:33:50;2.70;;;2.40;;
1575;SDS011;49795;50.088;9.068;2023-08-21T11:36:18;2.17;;;1.70;;
1575;SDS011;49795;50.088;9.068;2023-08-21T11:39:03;1.77;;;1.67;;
1575;SDS011;49795;50.088;9.068;2023-08-21T11:41:31;2.27;;;2.07;;
1575;SDS011;49795;50.088;9.068;2023-08-21T11:44:02;2.73;;;1.30;;
1575;SDS011;49795;50.088;9.068;2023-08-21T11:46:34;1.60;;;1.03;;
1575;SDS011;49795;50.088;9.068;2023-08-21T11:49:02;0.90;;;0.80;;
1575;SDS011;49795;50.088;9.068;2023-08-21T11:51:29;0.83;;;0.70;;
1575;SDS011;49795;50.088;9.068;2023-08-21T11:53:56;0.70;;;0.60;;
1575;SDS011;49795;50.088;9.068;2023-08-21T11:56:27;1.10;;;0.60;;
1575;SDS011;49795;50.088;9.068;2023-08-21T11:58:55;2.20;;;0.70;;
1575;SDS011;49795;50.088;9.068;2023-08-21T12:01:25;0.80;;;0.80;;
1575;SDS011;49795;50.088;9.068;2023-08-21T12:03:52;0.97;;;0.87;;
1575;SDS011;49795;50.088;9.068;2023-08-21T12:06:24;0.80;;;0.70;;
1575;SDS011;49795;50.088;9.068;2023-08-21T12:08:52;0.87;;;0.60;;
1575;SDS011;49795;50.088;9.068;2023-08-21T12:11:20;1.23;;;0.90;;
1575;SDS011;49795;50.088;9.068;2023-08-21T12:13:47;3.20;;;0.70;;
1575;SDS011;49795;50.088;9.068;2023-08-21T12:16:15;2.80;;;0.80;;
1575;SDS011;49795;50.088;9.068;2023-08-21T12:18:42;0.90;;;0.70;;
1575;SDS011;49795;50.088;9.068;2023-08-21T12:21:09;0.50;;;0.50;;
1575;SDS011;49795;50.088;9.068;2023-08-21T12:23:37;1.45;;;0.70;;
1575;SDS011;49795;50.088;9.068;2023-08-21T12:26:05;0.70;;;0.60;;
1575;SDS011;49795;50.088;9.068;2023-08-21T12:28:33;0.77;;;0.65;;
1575;SDS011;49795;50.088;9.068;2023-08-21T12:31:00;1.33;;;0.98;;
1575;SDS011;49795;50.088;9.068;2023-08-21T12:33:27;0.80;;;0.80;;
1575;SDS011;49795;50.088;9.068;2023-08-21T12:35:54;0.98;;;0.88;;
1575;SDS011;49795;50.088;9.068;2023-08-21T12:38:22;0.85;;;0.80;;
1575;SDS011;49795;50.088;9.068;2023-08-21T12:40:51;0.82;;;0.63;;
1575;SDS011;49795;50.088;9.068;2023-08-21T12:43:18;1.30;;;1.00;;
1575;SDS011;49795;50.088;9.068;2023-08-21T12:45:45;1.08;;;0.88;;
1575;SDS011;49795;50.088;9.068;2023-08-21T12:48:13;2.10;;;1.33;;
1575;SDS011;49795;50.088;9.068;2023-08-21T12:50:41;1.60;;;1.17;;
1575;SDS011;49795;50.088;9.068;2023-08-21T12:53:08;0.95;;;0.70;;
1575;SDS011;49795;50.088;9.068;2023-08-21T12:55:54;0.82;;;0.80;;
1575;SDS011;49795;50.088;9.068;2023-08-21T12:58:22;1.13;;;0.90;;
1575;SDS011;49795;50.088;9.068;2023-08-21T13:00:49;1.90;;;1.10;;
1575;SDS011;49795;50.088;9.068;2023-08-21T13:03:17;2.27;;;1.07;;
1575;SDS011;49795;50.088;9.068;2023-08-21T13:05:45;1.60;;;1.10;;
1575;SDS011;49795;50.088;9.068;2023-08-21T13:08:12;2.50;;;1.37;;
1575;SDS011;49795;50.088;9.068;2023-08-21T13:10:40;2.00;;;1.60;;
1575;SDS011;49795;50.088;9.068;2023-08-21T13:13:07;5.17;;;1.20;;
1575;SDS011;49795;50.088;9.068;2023-08-21T13:15:38;1.30;;;1.20;;
1575;SDS011;49795;50.088;9.068;2023-08-21T13:18:05;1.15;;;0.68;;
1575;SDS011;49795;50.088;9.068;2023-08-21T13:20:33;1.67;;;1.10;;
1575;SDS011;49795;50.088;9.068;2023-08-21T13:23:00;2.90;;;1.20;;
1575;SDS011;49795;50.088;9.068;2023-08-21T13:25:27;1.20;;;1.00;;
1575;SDS011;49795;50.088;9.068;2023-08-21T13:27:56;1.10;;;0.93;;
1575;SDS011;49795;50.088;9.068;2023-08-21T13:30:23;1.47;;;1.13;;
1575;SDS011;49795;50.088;9.068;2023-08-21T13:32:50;2.57;;;1.67;;
1575;SDS011;49795;50.088;9.068;2023-08-21T13:35:18;2.20;;;1.20;;
1575;SDS011;49795;50.088;9.068;2023-08-21T13:37:47;2.40;;;0.90;;
1575;SDS011;49795;50.088;9.068;2023-08-21T13:40:14;1.40;;;1.20;;
1575;SDS011;49795;50.088;9.068;2023-08-21T13:42:43;3.40;;;2.30;;
1575;SDS011;49795;50.088;9.068;2023-08-21T13:45:12;2.33;;;2.13;;
1575;SDS011;49795;50.088;9.068;2023-08-21T13:47:39;1.40;;;1.10;;
1575;SDS011;49795;50.088;9.068;2023-08-21T13:50:08;1.57;;;1.20;;
1575;SDS011;49795;50.088;9.068;2023-08-21T13:52:36;1.17;;;0.97;;
1575;SDS011;49795;50.088;9.068;2023-08-21T13:55:06;2.47;;;0.67;;
1575;SDS011;49795;50.088;9.068;2023-08-21T13:57:34;1.20;;;0.87;;
1575;SDS011;49795;50.088;9.068;2023-08-21T14:00:03;2.33;;;1.53;;
1575;SDS011;49795;50.088;9.068;2023-08-21T14:02:34;1.43;;;1.30;;
1575;SDS011;49795;50.088;9.068;2023-08-21T14:05:02;2.93;;;0.97;;
1575;SDS011;49795;50.088;9.068;2023-08-21T14:07:31;0.73;;;0.60;;
1575;SDS011;49795;50.088;9.068;2023-08-21T14:09:58;1.33;;;1.20;;
1575;SDS011;49795;50.088;9.068;2023-08-21T14:12:27;1.13;;;1.03;;
1575;SDS011;49795;50.088;9.068;2023-08-21T14:14:54;3.03;;;1.30;;
1575;SDS011;49795;50.088;9.068;2023-08-21T14:17:22;1.30;;;1.20;;
1575;SDS011;49795;50.088;9.068;2023-08-21T14:19:52;1.43;;;0.93;;
1575;SDS011;49795;50.088;9.068;2023-08-21T14:22:19;1.17;;;1.07;;
1575;SDS011;49795;50.088;9.068;2023-08-21T14:24:47;5.57;;;1.03;;
1575;SDS011;49795;50.088;9.068;2023-08-21T14:27:35;1.10;;;0.90;;
1575;SDS011;49795;50.088;9.068;2023-08-21T14:30:04;2.20;;;1.43;;
1575;SDS011;49795;50.088;9.068;2023-08-21T14:32:32;0.97;;;0.90;;
1575;SDS011;49795;50.088;9.068;2023-08-21T14:35:03;2.03;;;1.20;;
1575;SDS011;49795;50.088;9.068;2023-08-21T14:37:33;1.30;;;1.10;;
1575;SDS011;49795;50.088;9.068;2023-08-21T14:40:01;1.10;;;1.00;;
1575;SDS011;49795;50.088;9.068;2023-08-21T14:42:33;1.73;;;1.00;;
1575;SDS011;49795;50.088;9.068;2023-08-21T14:45:02;1.17;;;1.07;;
1575;SDS011;49795;50.088;9.068;2023-08-21T14:47:29;1.40;;;1.07;;
1575;SDS011;49795;50.088;9.068;2023-08-21T14:49:57;2.50;;;1.07;;
1575;SDS011;49795;50.088;9.068;2023-08-21T14:52:24;3.13;;;1.27;;
1575;SDS011;49795;50.088;9.068;2023-08-21T14:54:52;1.87;;;1.30;;
1575;SDS011;49795;50.088;9.068;2023-08-21T14:57:20;1.10;;;1.00;;
1575;SDS011;49795;50.088;9.068;2023-08-21T14:59:47;3.03;;;1.00;;
1575;SDS011;49795;50.088;9.068;2023-08-21T15:02:14;1.33;;;1.17;;
1575;SDS011;49795;50.088;9.068;2023-08-21T15:04:42;2.00;;;1.00;;
1575;SDS011;49795;50.088;9.068;2023-08-21T15:07:09;0.90;;;0.73;;
1575;SDS011;49795;50.088;9.068;2023-08-21T15:09:37;1.50;;;1.33;;
1575;SDS011;49795;50.088;9.068;2023-08-21T15:12:04;1.20;;;0.80;;
1575;SDS011;49795;50.088;9.068;2023-08-21T15:14:32;1.80;;;0.80;;
1575;SDS011;49795;50.088;9.068;2023-08-21T15:16:59;0.93;;;0.90;;